createdAt,value
2019-05-30T00:01:49.751Z,11.30
2019-05-30T00:04:21.195Z,10.58
2019-05-30T00:06:52.605Z,10.28
2019-05-30T00:09:24.506Z,10.42
2019-05-30T00:11:56.667Z,10.94
2019-05-30T00:14:28.219Z,10.87
2019-05-30T00:17:00.837Z,10.92
2019-05-30T00:19:34.232Z,11.06
2019-05-30T00:22:05.825Z,11.11
2019-05-30T00:24:37.200Z,11.20
2019-05-30T00:27:08.577Z,11.25
2019-05-30T00:29:39.997Z,11.26
2019-05-30T00:32:11.796Z,11.08
2019-05-30T00:34:43.194Z,10.61
2019-05-30T00:37:14.557Z,10.35
2019-05-30T00:39:46.094Z,10.58
2019-05-30T00:42:17.491Z,10.56
2019-05-30T00:44:49.024Z,10.67
2019-05-30T00:47:20.363Z,10.84
2019-05-30T00:49:51.767Z,10.93
2019-05-30T00:52:23.053Z,10.93
2019-05-30T00:54:54.464Z,10.94
2019-05-30T00:57:25.804Z,10.37
2019-05-30T00:59:58.682Z,10.25
2019-05-30T01:02:30.951Z,10.09
2019-05-30T01:05:03.488Z,10.10
2019-05-30T01:07:36.055Z,9.75
2019-05-30T01:10:09.714Z,9.53
2019-05-30T01:12:41.175Z,9.76
2019-05-30T01:15:13.376Z,10.03
2019-05-30T01:17:44.685Z,9.98
2019-05-30T01:20:16.666Z,9.45
2019-05-30T01:22:48.025Z,9.26
2019-05-30T01:25:19.493Z,9.21
2019-05-30T01:27:50.787Z,9.31
2019-05-30T01:30:22.117Z,9.36
2019-05-30T01:32:53.566Z,9.97
2019-05-30T01:35:24.994Z,10.19
2019-05-30T01:37:57.514Z,10.00
2019-05-30T01:40:28.981Z,10.08
2019-05-30T01:43:00.263Z,9.77
2019-05-30T01:45:31.598Z,9.28
2019-05-30T01:48:04.550Z,9.49
2019-05-30T01:50:36.286Z,9.81
2019-05-30T01:53:08.831Z,9.39
2019-05-30T01:55:40.270Z,9.10
2019-05-30T01:58:12.631Z,8.94
2019-05-30T02:00:43.949Z,8.87
2019-05-30T02:03:16.025Z,8.91
2019-05-30T02:05:47.519Z,8.73
2019-05-30T02:08:19.001Z,8.65
2019-05-30T02:10:50.434Z,8.75
2019-05-30T02:13:21.948Z,8.79
2019-05-30T02:15:53.285Z,8.68
2019-05-30T02:18:24.637Z,8.70
2019-05-30T02:20:56.079Z,8.62
2019-05-30T02:23:27.370Z,8.70
2019-05-30T02:26:00.048Z,8.68
2019-05-30T02:28:32.609Z,8.59
2019-05-30T02:31:05.251Z,8.39
2019-05-30T02:33:36.962Z,8.59
2019-05-30T02:36:10.443Z,8.49
2019-05-30T02:38:41.351Z,8.34
2019-05-30T02:41:12.774Z,8.64
2019-05-30T02:43:44.966Z,8.70
2019-05-30T02:46:16.308Z,8.56
2019-05-30T02:48:58.710Z,8.48
2019-05-30T02:51:20.687Z,8.54
2019-05-30T02:53:53.150Z,8.46
2019-05-30T02:56:24.678Z,8.70
2019-05-30T02:58:56.028Z,8.77
2019-05-30T03:01:27.302Z,8.70
2019-05-30T03:03:58.649Z,8.63
2019-05-30T03:06:30.263Z,8.61
2019-05-30T03:09:03.843Z,8.48
2019-05-30T03:11:35.239Z,8.49
2019-05-30T03:14:12.052Z,8.47
2019-05-30T03:16:40.781Z,8.47
2019-05-30T03:19:12.715Z,8.38
2019-05-30T03:21:44.324Z,8.31
2019-05-30T03:24:15.758Z,8.30
2019-05-30T03:26:47.912Z,8.53
2019-05-30T03:29:19.484Z,8.95
2019-05-30T03:31:51.882Z,9.05
2019-05-30T03:34:28.556Z,8.78
2019-05-30T03:36:56.479Z,8.49
2019-05-30T03:39:30.742Z,8.69
2019-05-30T03:42:02.025Z,8.97
2019-05-30T03:44:33.461Z,8.83
2019-05-30T03:47:08.587Z,8.40
2019-05-30T03:49:43.869Z,8.40
2019-05-30T03:52:17.503Z,8.49
2019-05-30T03:54:50.393Z,8.69
2019-05-30T03:57:31.972Z,8.65
2019-05-30T04:00:23.105Z,8.54
2019-05-30T04:03:06.417Z,8.81
2019-05-30T04:05:45.026Z,8.92
2019-05-30T04:08:19.711Z,8.98
2019-05-30T04:10:54.701Z,9.06
2019-05-30T04:13:41.558Z,8.78
2019-05-30T04:16:13.595Z,8.58
2019-05-30T04:18:45.989Z,8.78
2019-05-30T04:21:20.939Z,8.85
2019-05-30T04:23:50.400Z,8.77
2019-05-30T04:26:21.861Z,8.76
2019-05-30T04:28:53.203Z,8.85
2019-05-30T04:31:24.529Z,8.92
2019-05-30T04:33:55.878Z,8.96
2019-05-30T04:36:27.277Z,8.93
2019-05-30T04:38:58.525Z,8.96
2019-05-30T04:41:29.976Z,9.01
2019-05-30T04:44:01.422Z,8.97
2019-05-30T04:46:32.821Z,8.98
2019-05-30T04:49:04.292Z,9.10
2019-05-30T04:51:36.679Z,9.15
2019-05-30T04:54:08.056Z,9.20
2019-05-30T04:56:39.358Z,9.34
2019-05-30T04:59:11.035Z,9.39
2019-05-30T05:01:42.935Z,9.44
2019-05-30T05:04:15.512Z,9.50
2019-05-30T05:06:47.042Z,9.55
2019-05-30T05:09:18.747Z,9.67
2019-05-30T05:11:51.482Z,9.82
2019-05-30T05:14:22.890Z,9.83
2019-05-30T05:16:54.298Z,9.82
2019-05-30T05:19:26.663Z,9.82
2019-05-30T05:21:58.168Z,9.92
2019-05-30T05:24:29.490Z,10.03
2019-05-30T05:27:01.468Z,10.21
2019-05-30T05:29:34.458Z,10.29
2019-05-30T05:32:06.169Z,10.41
2019-05-30T05:34:37.509Z,10.57
2019-05-30T05:37:09.461Z,10.68
2019-05-30T05:39:40.861Z,10.87
2019-05-30T05:42:12.293Z,10.95
2019-05-30T05:44:43.669Z,11.11
2019-05-30T05:47:16.301Z,11.27
2019-05-30T05:49:47.894Z,11.41
2019-05-30T05:52:19.179Z,11.47
2019-05-30T05:54:50.654Z,11.65
2019-05-30T05:57:22.965Z,11.82
2019-05-30T05:59:54.405Z,12.02
2019-05-30T06:02:25.779Z,12.05
2019-05-30T06:04:57.065Z,12.07
2019-05-30T06:07:29.974Z,12.56
2019-05-30T06:10:01.229Z,12.34
2019-05-30T06:12:33.883Z,12.37
2019-05-30T06:15:07.484Z,12.72
2019-05-30T06:17:39.984Z,12.69
2019-05-30T06:20:13.209Z,12.85
2019-05-30T06:22:44.734Z,12.94
2019-05-30T06:25:18.668Z,13.33
2019-05-30T06:27:49.658Z,13.51
2019-05-30T06:30:22.351Z,13.65
2019-05-30T06:32:57.051Z,13.57
2019-05-30T06:35:36.003Z,13.52
2019-05-30T06:38:12.824Z,13.77
2019-05-30T06:40:57.690Z,13.96
2019-05-30T08:17:37.810Z,17.80
2019-05-30T08:20:10.604Z,18.11
2019-05-30T08:22:42.030Z,17.95
2019-05-30T08:25:13.643Z,18.30
2019-05-30T08:27:44.966Z,18.23
2019-05-30T08:30:17.188Z,18.90
2019-05-30T08:32:48.827Z,18.75
2019-05-30T08:35:20.724Z,18.54
2019-05-30T08:37:52.082Z,18.88
2019-05-30T08:40:23.531Z,19.08
2019-05-30T08:42:55.055Z,19.02
2019-05-30T08:45:26.624Z,19.37
2019-05-30T08:47:58.047Z,19.33
2019-05-30T08:50:30.222Z,19.45
2019-05-30T08:53:01.617Z,19.28
2019-05-30T08:55:34.340Z,19.95
2019-05-30T08:58:06.018Z,19.65
2019-05-30T09:00:37.337Z,20.12
2019-05-30T09:03:09.889Z,20.03
2019-05-30T09:05:57.230Z,20.06
2019-05-30T09:08:14.130Z,19.95
2019-05-30T09:10:46.484Z,20.42
2019-05-30T09:13:17.833Z,20.78
2019-05-30T09:15:52.989Z,20.96
2019-05-30T09:18:24.895Z,21.11
2019-05-30T09:20:56.587Z,20.98
2019-05-30T09:23:28.174Z,20.66
2019-05-30T09:25:59.536Z,21.05
2019-05-30T09:28:30.932Z,21.30
2019-05-30T09:31:02.349Z,20.73
2019-05-30T09:33:33.735Z,20.61
2019-05-30T09:36:13.301Z,20.45
2019-05-30T09:38:40.273Z,20.11
2019-05-30T09:41:15.556Z,20.03
2019-05-30T09:43:48.179Z,19.76
2019-05-30T09:46:19.892Z,19.54
2019-05-30T09:48:51.876Z,19.75
2019-05-30T09:51:23.410Z,19.73
2019-05-30T09:53:54.952Z,19.89
2019-05-30T09:56:26.544Z,19.95
2019-05-30T09:58:58.002Z,19.91
2019-05-30T10:01:29.672Z,19.71
2019-05-30T10:04:01.042Z,19.78
2019-05-30T10:06:32.625Z,19.83
2019-05-30T10:09:05.876Z,19.99
2019-05-30T10:11:37.394Z,20.03
2019-05-30T10:14:10.387Z,20.14
2019-05-30T10:16:42.318Z,20.26
2019-05-30T10:19:15.406Z,20.61
2019-05-30T10:21:47.169Z,20.65
2019-05-30T10:24:18.605Z,22.20
2019-05-30T10:26:51.090Z,23.35
2019-05-30T10:29:22.429Z,22.46
2019-05-30T10:31:53.838Z,22.63
2019-05-30T10:34:25.315Z,22.18
2019-05-30T10:36:56.979Z,21.96
2019-05-30T10:39:28.490Z,22.56
2019-05-30T10:41:59.738Z,22.33
2019-05-30T10:44:31.465Z,22.98
2019-05-30T10:47:02.837Z,22.90
2019-05-30T10:49:37.314Z,22.39
2019-05-30T10:52:08.842Z,21.65
2019-05-30T10:54:41.533Z,21.57
2019-05-30T10:57:13.126Z,21.88
2019-05-30T10:59:45.958Z,21.67
2019-05-30T11:02:17.901Z,21.61
2019-05-30T11:04:50.503Z,22.25
2019-05-30T11:07:55.126Z,22.94
2019-05-30T11:10:39.682Z,22.48
2019-05-30T11:13:17.149Z,22.36
2019-05-30T11:15:49.867Z,22.62
2019-05-30T11:18:21.778Z,22.27
2019-05-30T11:20:54.048Z,22.26
2019-05-30T11:23:25.891Z,22.71
2019-05-30T11:25:58.831Z,22.90
2019-05-30T11:28:32.015Z,22.68
2019-05-30T11:31:04.793Z,22.75
2019-05-30T11:33:36.655Z,22.65
2019-05-30T11:36:08.285Z,22.78
2019-05-30T11:38:39.606Z,22.78
2019-05-30T11:41:11.008Z,22.78
2019-05-30T11:43:43.514Z,22.64
2019-05-30T11:46:14.853Z,22.16
2019-05-30T11:48:46.440Z,22.15
2019-05-30T11:51:17.874Z,22.43
2019-05-30T11:53:49.787Z,21.73
2019-05-30T11:56:21.622Z,21.72
2019-05-30T11:58:53.968Z,21.76
2019-05-30T12:01:26.151Z,21.79
2019-05-30T12:03:58.918Z,22.09
2019-05-30T12:06:33.593Z,22.05
2019-05-30T12:09:08.539Z,21.32
2019-05-30T12:11:40.236Z,21.63
2019-05-30T12:14:11.791Z,21.45
2019-05-30T12:16:43.767Z,21.15
2019-05-30T12:19:16.077Z,21.24
2019-05-30T12:21:47.753Z,21.31
2019-05-30T12:24:19.235Z,21.38
2019-05-30T12:26:51.882Z,21.49
2019-05-30T12:29:23.394Z,21.81
2019-05-30T12:31:58.433Z,22.16
2019-05-30T12:34:28.639Z,22.09
2019-05-30T12:37:00.561Z,21.99
2019-05-30T12:39:34.709Z,21.89
2019-05-30T12:42:06.289Z,21.90
2019-05-30T12:44:37.994Z,21.92
2019-05-30T12:47:09.873Z,22.02
2019-05-30T12:49:43.042Z,21.86
2019-05-30T12:52:14.769Z,21.80
2019-05-30T12:54:46.153Z,21.43
2019-05-30T12:57:17.708Z,21.64
2019-05-30T12:59:52.377Z,21.62
2019-05-30T13:02:29.565Z,21.65
2019-05-30T13:05:01.056Z,21.71
2019-05-30T13:07:33.609Z,21.48
2019-05-30T13:10:09.266Z,21.94
2019-05-30T13:12:41.062Z,21.59
2019-05-30T13:15:12.741Z,21.57
2019-05-30T13:17:44.231Z,21.34
2019-05-30T13:20:17.572Z,21.37
2019-05-30T13:22:49.119Z,21.59
2019-05-30T13:25:22.955Z,21.47
2019-05-30T13:27:55.721Z,21.31
2019-05-30T13:30:27.476Z,21.72
2019-05-30T13:33:00.675Z,21.78
2019-05-30T13:35:33.755Z,21.72
2019-05-30T13:38:05.832Z,21.35
2019-05-30T13:40:37.693Z,21.66
2019-05-30T13:43:10.793Z,21.63
2019-05-30T13:45:42.620Z,21.64
2019-05-30T13:48:14.265Z,21.52
2019-05-30T13:50:46.907Z,21.43
2019-05-30T13:53:18.694Z,21.42
2019-05-30T13:55:50.628Z,21.15
2019-05-30T13:58:22.434Z,21.31
2019-05-30T14:00:55.186Z,21.35
2019-05-30T14:03:27.417Z,21.06
2019-05-30T14:05:59.940Z,20.95
2019-05-30T14:08:41.253Z,21.01
2019-05-30T14:11:06.657Z,21.26
2019-05-30T14:13:41.088Z,21.43
2019-05-30T14:16:17.681Z,21.91
2019-05-30T14:19:11.171Z,22.08
2019-05-30T14:21:57.308Z,22.23
2019-05-30T14:24:39.112Z,22.00
2019-05-30T14:27:28.239Z,22.26
2019-05-30T14:30:13.121Z,22.44
2019-05-30T14:33:02.105Z,22.16
2019-05-30T14:36:07.139Z,22.20
2019-05-30T14:38:58.725Z,21.92
2019-05-30T14:41:36.231Z,22.35
2019-05-30T14:44:54.837Z,23.15
2019-05-30T14:47:59.793Z,22.82
2019-05-30T14:53:52.891Z,22.56
2019-05-30T14:59:31.148Z,22.10
2019-05-30T15:10:24.805Z,21.62
2019-05-30T15:18:11.291Z,21.58
2019-05-30T15:20:59.848Z,21.45
2019-05-30T15:27:00.671Z,21.53
2019-05-30T15:29:49.333Z,21.35
2019-05-30T15:32:17.907Z,21.36
2019-05-30T18:56:37.013Z,19.76
2019-05-30T18:59:13.184Z,19.83
2019-05-30T19:01:44.885Z,19.87
2019-05-30T19:04:16.854Z,19.70
2019-05-30T19:06:48.866Z,19.70
2019-05-30T19:09:20.892Z,19.65
2019-05-30T19:11:53.508Z,19.48
2019-05-30T19:14:29.363Z,19.49
2019-05-30T19:17:07.367Z,19.35
2019-05-30T19:19:40.408Z,19.23
2019-05-30T19:22:14.613Z,18.81
2019-05-30T19:24:49.825Z,18.84
2019-05-30T19:27:38.611Z,19.11
2019-05-30T19:30:15.287Z,19.11
2019-05-30T19:32:54.205Z,18.91
2019-05-30T19:35:26.997Z,18.67
2019-05-30T19:38:25.056Z,18.54
2019-05-30T19:41:17.960Z,18.70
2019-05-30T19:44:01.888Z,18.45
2019-05-30T19:46:58.876Z,18.32
2019-05-30T19:53:34.931Z,18.30
2019-05-30T20:03:08.920Z,18.18
2019-05-30T20:06:32.503Z,17.95
2019-05-30T20:09:26.587Z,17.90
2019-05-30T20:12:08.980Z,17.70
2019-05-30T20:14:50.409Z,17.68
2019-05-30T20:17:39.626Z,17.75
2019-05-30T20:20:17.736Z,17.56
2019-05-30T20:22:59.288Z,17.50
2019-05-30T20:25:34.537Z,17.04
2019-05-30T20:28:32.663Z,17.08
2019-05-30T20:31:30.799Z,16.91
2019-05-30T20:34:09.566Z,17.07
2019-05-30T20:36:44.729Z,17.23
2019-05-30T20:39:24.824Z,17.19
2019-05-30T20:42:19.352Z,17.16
2019-05-30T20:44:49.131Z,16.99
2019-05-30T20:47:29.412Z,16.79
2019-05-30T20:53:09.924Z,16.80
2019-05-30T20:58:51.867Z,16.68
2019-05-30T21:01:32.038Z,16.60
2019-05-30T21:04:24.376Z,16.51
2019-05-30T21:06:59.190Z,16.46
2019-05-30T21:09:39.907Z,16.40
2019-05-30T21:15:22.451Z,16.27
2019-05-30T21:17:54.862Z,16.26
2019-05-30T21:20:29.595Z,16.32
2019-05-30T21:23:20.201Z,16.30
2019-05-30T21:25:52.631Z,16.30
2019-05-30T21:28:34.876Z,16.18
2019-05-30T21:31:12.761Z,16.46
2019-05-30T21:33:55.827Z,16.31
2019-05-30T21:36:32.742Z,16.30
2019-05-30T21:39:27.751Z,16.06
2019-05-30T21:42:01.527Z,16.23
2019-05-30T21:44:36.636Z,16.19
2019-05-30T21:47:21.806Z,15.97
2019-05-30T21:50:14.585Z,16.22
2019-05-30T21:53:09.263Z,16.34
2019-05-30T21:55:51.999Z,16.20
2019-05-30T21:58:31.330Z,16.28
2019-05-30T22:01:22.413Z,16.23
2019-05-30T22:03:54.535Z,16.29
2019-05-30T22:06:30.809Z,16.03
2019-05-30T22:12:41.464Z,15.88
2019-05-30T22:15:49.768Z,15.79
2019-05-30T22:19:35.903Z,15.76
2019-05-30T22:29:03.288Z,15.53
2019-05-30T22:35:55.239Z,15.42
2019-05-30T22:38:52.777Z,15.21
2019-05-30T22:41:34.002Z,15.00
2019-05-30T22:44:24.074Z,14.86
2019-05-30T22:47:23.129Z,15.04
2019-05-30T22:50:23.207Z,15.27
2019-05-30T22:53:12.082Z,15.07
2019-05-30T22:56:10.170Z,15.16
2019-05-30T22:59:13.186Z,15.06
2019-05-30T23:01:57.668Z,15.05
2019-05-30T23:04:57.875Z,14.92
2019-05-30T23:07:53.488Z,14.98
2019-05-30T23:10:33.320Z,14.95
2019-05-30T23:13:18.490Z,14.94
2019-05-30T23:19:24.117Z,15.04
2019-05-30T23:23:16.005Z,15.10
2019-05-30T23:25:01.305Z,15.02
2019-05-30T23:28:10.235Z,14.95
2019-05-30T23:30:43.501Z,15.00
2019-05-30T23:33:27.588Z,15.00
2019-05-30T23:36:48.436Z,15.18
2019-05-30T23:39:06.296Z,15.19
2019-05-30T23:41:48.882Z,15.28
2019-05-30T23:44:29.443Z,15.22
2019-05-30T23:47:26.532Z,15.36
2019-05-30T23:53:07.215Z,15.55
2019-05-30T23:55:41.047Z,15.81
2019-05-30T23:58:13.169Z,15.80
